Time;durP1;ratioP1;P1;durP2;ratioP2;P2;SDS_P1;SDS_P2;PMS_P1;PMS_P2;Temp;Humidity;BMP_temperature;BMP_pressure;BME280_temperature;BME280_humidity;BME280_pressure;Samples;Min_cycle;Max_cycle;Signal;HPM_P1;HPM_P2
2022/06/25 00:01:10;;;;;;;4.22;3.50;;;18.20;89.00;;;;;;5113584;28;20012;-48
2022/06/25 00:03:36;;;;;;;8.13;3.55;;;18.20;88.90;;;;;;5113529;28;20053;-49
2022/06/25 00:06:02;;;;;;;7.00;4.28;;;18.20;89.00;;;;;;5113714;28;20030;-51
2022/06/25 00:08:28;;;;;;;6.30;4.07;;;18.20;89.00;;;;;;5113446;28;20031;-50
2022/06/25 00:10:54;;;;;;;4.95;3.78;;;18.20;89.00;;;;;;5113471;28;20023;-51
2022/06/25 00:13:20;;;;;;;8.00;3.80;;;18.30;88.50;;;;;;5094998;28;20051;-47
2022/06/25 00:15:46;;;;;;;5.38;3.30;;;18.20;88.40;;;;;;5113649;28;20065;-54
2022/06/25 00:18:13;;;;;;;6.43;4.20;;;18.30;88.50;;;;;;5113394;28;20057;-48
2022/06/25 00:20:39;;;;;;;7.97;4.38;;;18.30;88.10;;;;;;5113696;28;20102;-47
2022/06/25 00:23:04;;;;;;;6.57;4.57;;;18.30;87.90;;;;;;5113587;28;20047;-50
2022/06/25 00:25:30;;;;;;;12.40;9.07;;;18.20;88.20;;;;;;5095272;28;20027;-47
2022/06/25 00:27:56;;;;;;;5.05;4.40;;;18.20;88.70;;;;;;5113895;28;20096;-47
2022/06/25 00:30:22;;;;;;;8.05;4.22;;;18.00;88.90;;;;;;5113826;28;20020;-48
2022/06/25 00:32:47;;;;;;;5.60;4.72;;;17.90;89.30;;;;;;5113573;28;20073;-49
2022/06/25 00:35:13;;;;;;;6.47;5.05;;;17.80;89.60;;;;;;5113411;28;20107;-49
2022/06/25 00:37:38;;;;;;;7.50;4.65;;;17.70;89.90;;;;;;5094956;28;20032;-47
2022/06/25 00:40:05;;;;;;;7.20;4.65;;;17.70;90.20;;;;;;5113134;28;20047;-48
2022/06/25 00:42:30;;;;;;;7.72;5.50;;;17.70;90.50;;;;;;5113043;28;20031;-48
2022/06/25 00:44:56;;;;;;;5.88;5.10;;;17.60;90.60;;;;;;5113011;28;20364;-48
2022/06/25 00:47:22;;;;;;;6.00;4.38;;;17.60;90.70;;;;;;5113043;28;20023;-47
2022/06/25 00:49:49;;;;;;;5.53;4.40;;;17.60;90.70;;;;;;5113320;28;20471;-48
2022/06/25 00:52:17;;;;;;;9.38;5.05;;;17.50;90.80;;;;;;5112987;28;20020;-49
2022/06/25 00:54:51;;;;;;;5.18;4.68;;;17.50;90.80;;;;;;5113003;28;20031;-50
2022/06/25 00:57:26;;;;;;;5.63;4.80;;;17.50;90.90;;;;;;5113642;28;20363;-48
2022/06/25 00:59:57;;;;;;;7.38;4.88;;;17.60;90.90;;;;;;5112937;28;20209;-50
2022/06/25 01:02:22;;;;;;;6.35;4.05;;;17.60;90.90;;;;;;5112856;28;20024;-48
2022/06/25 01:04:49;;;;;;;6.28;4.28;;;17.60;90.90;;;;;;5115394;28;20094;-48
2022/06/25 01:07:18;;;;;;;5.03;4.53;;;17.60;90.80;;;;;;5116722;28;20485;-50
2022/06/25 01:09:47;;;;;;;6.32;4.25;;;17.60;90.70;;;;;;5116959;28;20024;-51
2022/06/25 01:12:12;;;;;;;7.25;4.22;;;17.60;90.50;;;;;;5116936;28;20077;-49
2022/06/25 01:14:42;;;;;;;7.90;4.20;;;17.60;90.40;;;;;;5116634;28;20031;-51
2022/06/25 01:17:08;;;;;;;3.75;3.35;;;17.60;90.20;;;;;;5116464;28;20075;-49
2022/06/25 01:19:35;;;;;;;4.75;3.63;;;17.60;90.10;;;;;;5116570;28;20028;-50
2022/06/25 01:22:08;;;;;;;8.07;3.35;;;17.60;90.00;;;;;;5116671;28;20490;-49
2022/06/25 01:24:34;;;;;;;5.07;3.40;;;17.70;89.90;;;;;;5116699;28;20032;-49
2022/06/25 01:27:00;;;;;;;6.25;3.28;;;17.70;89.40;;;;;;5116333;28;20050;-50
2022/06/25 01:29:25;;;;;;;5.15;2.83;;;17.70;89.30;;;;;;5116740;28;20032;-50
2022/06/25 01:31:52;;;;;;;4.22;2.78;;;17.70;89.00;;;;;;5116440;28;20020;-48
2022/06/25 01:34:18;;;;;;;4.25;3.00;;;17.70;88.70;;;;;;5116579;28;20027;-50
2022/06/25 01:36:44;;;;;;;6.70;2.92;;;17.70;88.60;;;;;;5116288;28;20036;-49
2022/06/25 01:39:10;;;;;;;8.63;3.22;;;17.70;88.30;;;;;;5116544;28;20020;-52
2022/06/25 01:41:36;;;;;;;4.75;3.08;;;17.70;88.40;;;;;;5116680;28;20036;-49
2022/06/25 01:44:01;;;;;;;3.70;3.08;;;17.70;88.50;;;;;;5116440;28;20023;-52
2022/06/25 01:46:27;;;;;;;12.60;3.25;;;17.60;88.50;;;;;;5116485;28;20024;-48
2022/06/25 01:48:53;;;;;;;5.55;3.08;;;17.60;88.60;;;;;;5116409;28;20032;-49
2022/06/25 01:51:20;;;;;;;4.75;3.03;;;17.60;88.40;;;;;;5097896;28;20360;-50
2022/06/25 01:53:45;;;;;;;5.13;3.17;;;17.50;88.30;;;;;;5116197;28;20012;-50
2022/06/25 01:56:11;;;;;;;3.38;2.50;;;17.50;88.50;;;;;;5116533;28;20030;-50
2022/06/25 01:58:37;;;;;;;6.05;3.08;;;17.50;88.30;;;;;;5116371;28;20032;-49
2022/06/25 02:01:04;;;;;;;5.43;2.75;;;17.50;88.60;;;;;;5116146;28;20023;-49
2022/06/25 02:03:30;;;;;;;7.80;2.90;;;17.50;88.70;;;;;;5116644;28;20106;-50
2022/06/25 02:05:58;;;;;;;4.47;2.78;;;17.50;88.90;;;;;;5117079;28;20062;-53
2022/06/25 02:08:33;;;;;;;4.28;2.90;;;17.50;88.50;;;;;;5116976;28;20027;-49
2022/06/25 02:11:01;;;;;;;5.72;3.42;;;17.60;88.00;;;;;;5115802;28;20032;-49
2022/06/25 02:13:27;;;;;;;5.55;2.90;;;17.60;88.00;;;;;;5115612;28;20031;-50
2022/06/25 02:15:53;;;;;;;7.30;3.47;;;17.50;88.00;;;;;;5097254;28;20035;-50
2022/06/25 02:18:20;;;;;;;3.67;2.72;;;17.60;88.10;;;;;;5115301;28;20380;-52
2022/06/25 02:20:45;;;;;;;7.80;3.40;;;17.60;88.10;;;;;;5115562;28;20192;-51
2022/06/25 02:23:12;;;;;;;3.00;2.70;;;17.50;88.20;;;;;;5115526;28;20529;-49
2022/06/25 02:25:38;;;;;;;4.38;3.08;;;17.60;88.10;;;;;;5115462;28;20039;-53
2022/06/25 02:28:04;;;;;;;3.33;3.03;;;17.60;87.90;;;;;;5115405;28;20032;-51
2022/06/25 02:30:30;;;;;;;4.88;2.95;;;17.60;88.10;;;;;;5115486;28;20031;-50
2022/06/25 02:32:56;;;;;;;3.30;2.95;;;17.50;88.20;;;;;;5115759;28;20073;-49
2022/06/25 02:35:22;;;;;;;12.55;3.42;;;17.50;88.40;;;;;;5115502;28;20027;-50
2022/06/25 02:37:47;;;;;;;8.73;3.67;;;17.50;88.50;;;;;;5115241;28;20111;-48
2022/06/25 02:40:13;;;;;;;18.55;5.10;;;17.50;88.30;;;;;;5114981;28;20047;-47
2022/06/25 02:42:40;;;;;;;5.53;3.25;;;17.50;88.20;;;;;;5115034;28;20027;-51
2022/06/25 02:45:07;;;;;;;6.32;3.10;;;17.50;88.30;;;;;;5115165;28;20426;-51
2022/06/25 02:47:33;;;;;;;7.78;3.55;;;17.40;88.50;;;;;;5115082;28;20563;-49
2022/06/25 02:49:59;;;;;;;3.67;3.10;;;17.30;88.70;;;;;;5114881;28;20065;-48
2022/06/25 02:52:25;;;;;;;4.47;3.08;;;17.40;88.70;;;;;;5114995;28;20414;-51
2022/06/25 02:54:51;;;;;;;6.13;3.00;;;17.40;88.90;;;;;;5114965;28;20541;-50
2022/06/25 20:15:53;;;;;;;13.27;7.78;;;23.30;61.50;;;;;;5090668;27;20382;-50
2022/06/25 20:18:19;;;;;;;11.73;4.53;;;23.30;61.90;;;;;;5090513;28;20145;-50
2022/06/25 20:20:48;;;;;;;6.20;3.45;;;23.20;62.20;;;;;;5090761;28;20074;-51
2022/06/25 20:23:13;;;;;;;6.68;3.72;;;23.20;62.40;;;;;;5088771;28;20024;-51
2022/06/25 20:25:39;;;;;;;8.50;3.97;;;23.20;62.80;;;;;;5090056;28;20109;-50
2022/06/25 20:28:05;;;;;;;6.35;4.32;;;23.30;63.00;;;;;;5089964;28;20107;-50
2022/06/25 20:30:31;;;;;;;6.75;3.83;;;23.20;63.00;;;;;;5090178;28;20028;-53
2022/06/25 20:32:58;;;;;;;5.35;3.85;;;23.20;63.20;;;;;;5089583;28;20103;-51
2022/06/25 20:35:24;;;;;;;6.13;3.70;;;23.20;62.70;;;;;;5089368;28;20107;-53
2022/06/25 20:37:50;;;;;;;4.63;3.45;;;23.20;63.20;;;;;;5088269;28;20463;-51
2022/06/25 20:40:18;;;;;;;7.38;3.63;;;23.10;63.50;;;;;;5088120;28;20028;-49
2022/06/25 20:42:44;;;;;;;7.07;3.83;;;23.20;63.50;;;;;;5089930;28;20333;-49
2022/06/25 20:45:10;;;;;;;6.72;3.67;;;23.10;63.50;;;;;;5090217;28;20028;-50
2022/06/25 20:47:35;;;;;;;6.13;4.05;;;23.10;63.60;;;;;;5089683;28;20032;-50
2022/06/25 20:50:02;;;;;;;9.65;5.28;;;23.00;63.60;;;;;;5089693;28;20031;-51
2022/06/25 20:52:27;;;;;;;9.85;5.72;;;23.00;63.80;;;;;;5088220;28;20026;-51
2022/06/25 20:54:53;;;;;;;5.32;4.13;;;23.00;63.70;;;;;;5089382;28;20512;-48
2022/06/25 20:57:21;;;;;;;8.75;3.70;;;23.10;63.90;;;;;;5089230;28;20063;-52
2022/06/25 20:59:50;;;;;;;10.10;4.65;;;23.10;63.60;;;;;;5087978;28;20021;-48
2022/06/25 21:02:16;;;;;;;4.38;3.55;;;23.10;64.20;;;;;;5087743;28;20024;-52
2022/06/25 21:10:11;;;;;;;9.55;3.85;;;23.10;64.20;;;;;;5090345;28;20035;-51
2022/06/25 21:12:37;;;;;;;9.70;4.70;;;23.10;64.20;;;;;;5089626;28;20107;-53
2022/06/25 21:15:03;;;;;;;6.50;3.88;;;23.10;64.10;;;;;;5089056;28;20036;-50
2022/06/25 21:17:29;;;;;;;7.07;4.10;;;23.10;64.40;;;;;;5089392;28;20027;-49
2022/06/25 21:19:54;;;;;;;8.82;4.07;;;23.10;63.90;;;;;;5089538;28;20013;-48
2022/06/25 21:22:20;;;;;;;11.77;3.85;;;23.10;64.00;;;;;;5089528;28;20020;-54
2022/06/25 21:24:45;;;;;;;7.97;3.38;;;23.00;63.70;;;;;;5088066;28;20024;-52
2022/06/25 21:27:15;;;;;;;7.28;3.50;;;23.00;63.20;;;;;;5076031;28;20067;-49
2022/06/25 21:29:41;;;;;;;9.18;3.50;;;22.80;63.50;;;;;;5075632;28;20028;-52
2022/06/25 21:32:07;;;;;;;5.32;3.20;;;22.90;63.60;;;;;;5075561;28;20032;-50
2022/06/25 21:34:33;;;;;;;8.85;6.30;;;22.90;63.50;;;;;;5075548;28;20416;-49
2022/06/25 21:36:59;;;;;;;5.22;3.63;;;22.80;63.40;;;;;;5075483;28;20138;-50
2022/06/25 21:39:25;;;;;;;7.15;3.92;;;22.80;64.20;;;;;;5075631;28;20309;-49
2022/06/25 21:41:51;;;;;;;5.05;3.70;;;22.70;64.60;;;;;;5075861;28;20074;-50
2022/06/25 21:44:16;;;;;;;5.70;3.70;;;22.60;64.50;;;;;;5076071;28;20035;-49
2022/06/25 21:46:42;;;;;;;5.30;3.85;;;22.50;64.90;;;;;;5075939;28;20028;-51
2022/06/25 21:49:08;;;;;;;8.60;4.45;;;22.40;65.30;;;;;;5076422;28;20052;-49
2022/06/25 21:51:35;;;;;;;6.05;3.67;;;22.40;65.40;;;;;;5075331;28;20029;-50
2022/06/25 21:54:02;;;;;;;5.30;4.03;;;22.30;65.50;;;;;;5076112;28;20078;-53
2022/06/25 21:56:28;;;;;;;4.75;3.90;;;22.20;65.80;;;;;;5076234;28;20024;-49
2022/06/25 21:58:54;;;;;;;8.38;4.15;;;22.20;66.20;;;;;;5075974;28;20511;-49
2022/06/25 22:01:19;;;;;;;6.43;4.72;;;22.10;66.50;;;;;;5075619;28;20024;-52
2022/06/25 22:03:45;;;;;;;7.82;4.25;;;22.10;66.70;;;;;;5076106;28;20029;-51
2022/06/25 22:06:11;;;;;;;7.50;3.63;;;22.00;66.80;;;;;;5075936;28;20051;-49
2022/06/25 22:08:37;;;;;;;4.18;3.63;;;22.10;66.70;;;;;;5076019;28;20025;-51
2022/06/25 22:11:03;;;;;;;11.02;4.03;;;22.00;66.60;;;;;;5076662;28;20118;-50
2022/06/25 22:13:29;;;;;;;3.75;2.55;;;22.00;66.70;;;;;;5075178;28;20065;-51
2022/06/25 22:15:54;;;;;;;4.25;3.15;;;21.90;66.80;;;;;;5075658;28;20024;-50
2022/06/25 22:18:21;;;;;;;6.43;3.10;;;21.90;66.80;;;;;;5075775;28;20044;-50
2022/06/25 22:20:47;;;;;;;7.75;3.60;;;21.90;66.70;;;;;;5073897;28;20468;-51
2022/06/25 22:23:21;;;;;;;8.88;3.00;;;21.80;66.80;;;;;;5075464;28;20457;-49
2022/06/25 22:25:47;;;;;;;9.13;3.60;;;21.80;66.80;;;;;;5075490;28;20379;-52
2022/06/25 22:28:14;;;;;;;9.90;3.42;;;21.80;66.70;;;;;;5075187;28;20028;-50
2022/06/25 22:30:41;;;;;;;3.58;2.95;;;21.90;66.80;;;;;;5076198;28;20414;-52
2022/06/25 22:33:06;;;;;;;12.52;3.95;;;21.80;66.90;;;;;;5075088;28;20021;-50
2022/06/25 22:35:32;;;;;;;5.32;3.28;;;21.80;67.00;;;;;;5075083;28;20028;-50
2022/06/25 22:37:58;;;;;;;4.20;3.40;;;21.70;67.10;;;;;;5074138;28;20016;-56
2022/06/25 22:40:23;;;;;;;6.35;3.50;;;21.70;67.20;;;;;;5074976;28;20058;-50
2022/06/25 22:42:49;;;;;;;4.82;3.30;;;21.60;67.40;;;;;;5075041;28;20170;-49
2022/06/25 22:45:15;;;;;;;13.00;3.67;;;21.70;67.40;;;;;;5075281;28;20039;-52
2022/06/25 22:47:42;;;;;;;9.05;3.35;;;21.60;67.50;;;;;;5073661;28;20028;-50
2022/06/25 22:50:12;;;;;;;4.35;2.75;;;21.50;67.80;;;;;;5075107;28;20028;-50
2022/06/25 22:52:37;;;;;;;3.83;2.53;;;21.50;67.80;;;;;;5074086;28;20029;-50
2022/06/25 22:55:04;;;;;;;3.58;2.35;;;21.40;68.00;;;;;;5075723;28;20028;-52
2022/06/25 22:57:30;;;;;;;6.78;3.72;;;21.30;68.10;;;;;;5058355;28;20047;-52
2022/06/25 22:59:56;;;;;;;6.57;2.88;;;21.50;68.10;;;;;;5075663;28;20024;-52
2022/06/25 23:02:22;;;;;;;3.17;2.67;;;21.40;68.20;;;;;;5074170;28;20028;-50
2022/06/25 23:04:48;;;;;;;5.18;2.83;;;21.40;68.20;;;;;;5074375;28;20032;-48
2022/06/25 23:07:14;;;;;;;5.18;3.33;;;21.30;68.10;;;;;;5075101;28;20373;-51
2022/06/25 23:09:41;;;;;;;3.58;2.88;;;21.30;68.00;;;;;;5074390;28;20055;-52
2022/06/25 23:12:07;;;;;;;5.30;3.10;;;21.30;67.90;;;;;;5073964;28;20024;-50
2022/06/25 23:14:33;;;;;;;6.70;4.32;;;21.40;67.70;;;;;;5073938;28;20045;-49
2022/06/25 23:16:59;;;;;;;10.93;3.47;;;21.40;67.90;;;;;;5073835;28;20099;-52
2022/06/25 23:19:25;;;;;;;8.13;3.97;;;21.30;68.00;;;;;;5074803;28;20097;-49
2022/06/25 23:21:51;;;;;;;5.15;2.97;;;21.30;68.00;;;;;;5073695;28;20033;-51
2022/06/25 23:24:17;;;;;;;4.13;2.88;;;21.30;68.20;;;;;;5073447;28;20028;-50
2022/06/25 23:26:43;;;;;;;3.78;2.53;;;21.30;68.40;;;;;;5073680;28;20056;-51
2022/06/25 23:29:10;;;;;;;5.93;3.42;;;21.30;68.60;;;;;;5072330;28;20028;-48
2022/06/25 23:31:36;;;;;;;4.15;3.08;;;21.30;68.60;;;;;;5072325;28;20538;-50
2022/06/25 23:34:02;;;;;;;3.60;3.13;;;21.30;68.70;;;;;;5073570;28;20025;-49
2022/06/25 23:36:27;;;;;;;3.80;2.72;;;21.30;68.70;;;;;;5073357;28;20435;-49
2022/06/25 23:38:53;;;;;;;5.32;2.90;;;21.30;68.70;;;;;;5073291;28;20016;-50
2022/06/25 23:41:19;;;;;;;5.75;2.80;;;21.30;68.60;;;;;;5073325;28;20020;-50
2022/06/25 23:43:45;;;;;;;4.32;3.10;;;21.30;68.60;;;;;;5073552;28;20177;-52
2022/06/25 23:46:10;;;;;;;4.38;3.00;;;21.30;68.40;;;;;;5073375;28;20400;-50
2022/06/25 23:48:36;;;;;;;6.15;3.15;;;21.50;67.70;;;;;;5073061;28;20032;-49
2022/06/25 23:51:01;;;;;;;3.42;3.10;;;21.40;68.10;;;;;;5073240;28;20031;-49
2022/06/25 23:53:27;;;;;;;6.32;3.10;;;21.40;68.20;;;;;;5073852;28;20020;-49
2022/06/25 23:55:53;;;;;;;8.30;4.40;;;21.10;69.70;;;;;;5073326;28;20151;-50
2022/06/25 23:58:19;;;;;;;8.52;3.97;;;21.20;70.10;;;;;;5073445;28;20103;-50
